Aérodrome :
LOGIN :

S'inscrire | Disclaimer

   EN    FR    IT 

 










Légende :    VFR   VFR Marginal   IFR   IFR Intensif   IFR Très Intensif
Visi : 
Plafond : 
>= 8 km
>= 3000ft
5 à 8 km
1000 à 3000 ft
1500m à 5 km
500 à 1000 ft
800 à 1500m
200 à 500 ft
< 800m
< 200 ft
Symboles :   Orages  Brouillard  Fortes neiges  Fortes précipitations  Vent > 20 kt
SIGMETs :   Divers  Orages  Givrage  Turbulence  Onde Orograph.  Cendres Volcan.







- Altitude de l'aérodrome : 15 ft
- Code IATA : BHD
- Voir les cartes d'approche


EGAC - George Best Belfast City

DERNIER METAR :
  • 230750Z AUTO 22009KT 170V280 9999 BKN021/// 11/07 Q1031

METARs EXPIRÉS :
  • 230720Z AUTO 20010KT 170V230 9999 BKN022/// 11/07 Q1030
  • 230650Z AUTO 20009KT 9999 BKN022/// 12/07 Q1031
  • 230620Z AUTO 19007KT 160V240 9999 BKN024/// OVC028/// 12/07 Q1031
  • 230550Z AUTO 22010KT 190V280 9999 BKN025/// 12/07 Q1031
  • 230520Z AUTO 22007KT 170V280 9999 BKN026/// 12/07 Q1031

TAF TAF EGAC
Valide du 23 à 06h jusqu'au 23 à 15h UTC


230541Z 2306/2315 25013KT 9999 BKN024
TEMPO 2312/2315 27015G25KT
ATIS : +44 02890 935 124
Pas de NOTAMs connus pour ce terrain.
2 SIGMETs publiés pour la FIR Scottish (EGPX) :
 
Onde orographique forte
EGPX SIGMET 04 VALID 230600/231000 EGRR
EGPX SCOTTISH FIR SEV MTW FCST WI N5500 E00101 - N5500 W00530 - N5430 W00530 - N5456 W00650 - N5829 W00706 - N6056 W00037 - N5500 E00101 FL030/250 STNR NC=
Turbulence forte
EGPX SIGMET 03 VALID 230600/231000 EGRR
EGPX SCOTTISH FIR SEV TURB FCST WI N6000 E00000 - N5700 E00500 - N5500 E00500 - N5500 W00403 - N5732 W01000 - N6100 W01000 - N6100 E00000 - N6000 E00000 SFC/FL060 STNR NC=



MET'MAP, la Météo Aéronautique d'un coup d'oeil ! - Copyright ORBIFLY Décembre 2007 - Disclaimer

ORBIFLY MET'MAP TEAM :

Programmation & Développement : Alexandra Zaïnal
Conception & Développement : Baudouin d'Aumeries
Co-Programmation & Développement : Marc-Olivier Méhu
Soutien technique & logistique : Manuel Goepfert

Contact : metmap@orbifly.com




SOURCES & CREDITS :

   NOAA